Terminal Aerodrome Forecast
Issued by NWS Caribou, ME

Home | Current Version | Previous Version | Text Only | Print | Product List | Glossary On
Versions: 1 2 3 4 5 6 7 8 9 10 11 12 13 14 15 16 17 18 19 20 21 22 23 24 25 26 27 28 29 30
000
FTUS41 KCAR 161400 AAA
TAFBGR
TAF AMD
KBGR 161404Z 1614/1712 31018G26KT P6SM FEW030 BKN100
     FM161500 31019G26KT P6SM SCT060
     FM162200 31010G20KT P6SM SKC
     FM170000 31006KT P6SM SKC=

USA.gov is the U.S. government's official web portal to all federal, state and local government web resources and services.